createdAt,value
2022-12-18T00:00:31.143Z,14.00
2022-12-18T00:03:37.495Z,14.00
2022-12-18T00:06:39.948Z,14.00
2022-12-18T00:09:43.361Z,14.00
2022-12-18T00:12:45.714Z,14.00
2022-12-18T00:15:49.315Z,14.00
2022-12-18T00:18:53.765Z,14.00
2022-12-18T00:21:57.746Z,14.00
2022-12-18T00:25:00.025Z,14.00
2022-12-18T00:28:03.404Z,14.00
2022-12-18T00:31:11.426Z,14.00
2022-12-18T00:34:14.197Z,14.00
2022-12-18T00:37:19.993Z,14.00
2022-12-18T00:40:22.338Z,13.90
2022-12-18T00:43:26.956Z,13.90
2022-12-18T00:46:28.975Z,13.90
2022-12-18T00:49:31.817Z,13.90
2022-12-18T00:52:34.744Z,13.90
2022-12-18T00:55:39.562Z,13.90
2022-12-18T00:58:41.469Z,13.90
2022-12-18T01:01:43.995Z,13.90
2022-12-18T01:04:47.191Z,13.90
2022-12-18T01:07:51.371Z,13.90
2022-12-18T01:10:53.440Z,13.90
2022-12-18T01:13:56.525Z,13.80
2022-12-18T01:16:58.672Z,13.80
2022-12-18T01:20:00.633Z,13.80
2022-12-18T01:23:02.778Z,13.80
2022-12-18T01:26:16.171Z,13.80
2022-12-18T01:29:18.623Z,13.80
2022-12-18T01:32:21.334Z,13.70
2022-12-18T01:35:23.431Z,13.80
2022-12-18T01:38:26.534Z,13.80
2022-12-18T01:41:51.974Z,13.80
2022-12-18T01:45:00.135Z,13.80
2022-12-18T01:48:06.845Z,13.80
2022-12-18T01:51:11.293Z,13.80
2022-12-18T01:54:13.297Z,13.80
2022-12-18T01:57:15.706Z,13.80
2022-12-18T02:00:22.319Z,13.80
2022-12-18T02:03:25.810Z,13.80
2022-12-18T02:06:39.980Z,13.80
2022-12-18T02:09:48.799Z,13.80
2022-12-18T02:13:12.165Z,13.90
2022-12-18T02:16:42.966Z,13.80
2022-12-18T02:19:45.098Z,13.80
2022-12-18T02:23:05.625Z,13.80
2022-12-18T02:26:20.285Z,13.80
2022-12-18T02:29:29.104Z,13.80
2022-12-18T02:32:43.507Z,13.80
2022-12-18T02:35:48.041Z,13.80
2022-12-18T02:38:53.264Z,13.80
2022-12-18T02:41:55.732Z,13.80
2022-12-18T02:44:58.046Z,13.80
2022-12-18T02:48:00.114Z,13.80
2022-12-18T02:51:22.381Z,13.80
2022-12-18T02:54:43.257Z,13.80
2022-12-18T02:58:19.694Z,13.80
2022-12-18T03:01:31.377Z,13.80
2022-12-18T03:04:42.350Z,13.80
2022-12-18T03:08:00.188Z,13.80
2022-12-18T03:11:11.335Z,13.80
2022-12-18T03:14:17.733Z,13.80
2022-12-18T03:17:24.452Z,13.80
2022-12-18T03:20:31.782Z,13.80
2022-12-18T03:23:49.187Z,13.80
2022-12-18T03:26:55.903Z,13.80
2022-12-18T03:30:08.497Z,13.70
2022-12-18T03:33:18.978Z,13.70
2022-12-18T03:36:21.103Z,13.70
2022-12-18T03:39:23.429Z,13.70
2022-12-18T03:42:41.659Z,13.70
2022-12-18T03:46:03.687Z,13.70
2022-12-18T03:49:53.846Z,13.70
2022-12-18T03:53:19.600Z,13.70
2022-12-18T03:56:24.907Z,13.70
2022-12-18T03:59:28.831Z,13.60
2022-12-18T04:02:33.532Z,13.60
2022-12-18T04:05:38.156Z,13.60
2022-12-18T04:08:41.137Z,13.60
2022-12-18T04:11:45.482Z,13.50
2022-12-18T04:14:47.527Z,13.50
2022-12-18T04:17:51.024Z,13.50
2022-12-18T04:20:53.258Z,13.50
2022-12-18T04:23:55.457Z,13.40
2022-12-18T04:26:57.495Z,13.40
2022-12-18T04:29:59.598Z,13.40
2022-12-18T04:33:01.773Z,13.40
2022-12-18T04:36:04.080Z,13.30
2022-12-18T04:39:06.059Z,13.30
2022-12-18T04:42:08.344Z,13.30
2022-12-18T04:45:10.676Z,13.30
2022-12-18T04:48:12.767Z,13.30
2022-12-18T04:51:15.457Z,13.20
2022-12-18T04:54:17.572Z,13.20
2022-12-18T04:57:19.814Z,13.20
2022-12-18T05:00:22.580Z,13.20
2022-12-18T05:03:24.932Z,13.10
2022-12-18T05:06:28.847Z,13.10
2022-12-18T05:09:31.049Z,13.00
2022-12-18T05:12:33.283Z,13.00
2022-12-18T05:16:00.813Z,13.00
2022-12-18T05:19:12.692Z,13.00
2022-12-18T05:22:15.372Z,13.00
2022-12-18T05:25:19.836Z,13.00
2022-12-18T05:28:24.890Z,13.00
2022-12-18T05:31:27.017Z,13.00
2022-12-18T05:34:29.142Z,13.00
2022-12-18T05:37:31.287Z,13.00
2022-12-18T05:40:33.571Z,13.00
2022-12-18T05:43:38.670Z,13.10
2022-12-18T05:46:41.054Z,13.10
2022-12-18T05:49:43.462Z,13.10
2022-12-18T05:52:45.476Z,13.10
2022-12-18T05:55:48.767Z,13.10
2022-12-18T05:58:55.011Z,13.00
2022-12-18T06:01:57.167Z,13.10
2022-12-18T06:04:59.279Z,13.10
2022-12-18T06:08:01.318Z,13.00
2022-12-18T06:11:04.193Z,13.00
2022-12-18T06:14:07.734Z,13.00
2022-12-18T06:17:10.101Z,13.00
2022-12-18T06:20:12.232Z,13.10
2022-12-18T06:23:14.355Z,13.10
2022-12-18T06:26:16.573Z,13.10
2022-12-18T06:29:18.730Z,13.20
2022-12-18T06:32:21.242Z,13.30
2022-12-18T06:35:23.505Z,13.30
2022-12-18T06:38:25.621Z,13.40
2022-12-18T06:41:27.875Z,13.40
2022-12-18T06:44:30.261Z,13.50
2022-12-18T06:47:33.543Z,13.50
2022-12-18T06:50:35.754Z,13.50
2022-12-18T06:53:38.169Z,13.50
2022-12-18T06:56:40.555Z,13.60
2022-12-18T06:59:42.565Z,13.60
2022-12-18T07:02:44.791Z,13.50
2022-12-18T07:05:46.955Z,13.60
2022-12-18T07:08:49.291Z,13.60
2022-12-18T07:11:52.587Z,13.60
2022-12-18T07:14:54.661Z,13.60
2022-12-18T07:17:56.834Z,13.60
2022-12-18T07:20:58.980Z,13.60
2022-12-18T07:24:01.014Z,13.60
2022-12-18T07:27:03.504Z,13.50
2022-12-18T07:30:06.796Z,13.50
2022-12-18T07:33:08.854Z,13.50
2022-12-18T07:36:11.741Z,13.50
2022-12-18T07:39:13.864Z,13.50
2022-12-18T07:42:34.176Z,13.60
2022-12-18T07:45:36.477Z,13.60
2022-12-18T07:48:38.591Z,13.50
2022-12-18T07:51:40.554Z,13.50
2022-12-18T07:54:42.815Z,13.50
2022-12-18T07:57:55.417Z,13.40
2022-12-18T08:01:09.732Z,13.40
2022-12-18T08:04:13.752Z,13.40
2022-12-18T08:07:15.993Z,13.40
2022-12-18T08:10:18.536Z,13.40
2022-12-18T08:13:20.764Z,13.40
2022-12-18T08:16:24.536Z,13.40
2022-12-18T08:19:26.745Z,13.50
2022-12-18T08:22:28.927Z,13.50
2022-12-18T08:25:31.266Z,13.60
2022-12-18T08:28:33.381Z,13.70
2022-12-18T08:31:35.558Z,13.70
2022-12-18T08:34:37.902Z,13.70
2022-12-18T08:37:39.898Z,13.80
2022-12-18T08:40:42.341Z,13.80
2022-12-18T08:44:02.815Z,13.80
2022-12-18T08:47:06.110Z,13.80
2022-12-18T08:50:08.542Z,13.90
2022-12-18T08:53:10.588Z,13.90
2022-12-18T08:56:13.363Z,13.80
2022-12-18T08:59:19.536Z,13.90
2022-12-18T09:02:22.274Z,13.90
2022-12-18T09:05:24.427Z,13.90
2022-12-18T09:08:27.329Z,13.80
2022-12-18T09:11:30.797Z,13.80
2022-12-18T09:14:32.830Z,13.70
2022-12-18T09:17:34.814Z,13.70
2022-12-18T09:20:38.428Z,13.80
2022-12-18T09:23:41.118Z,13.80
2022-12-18T09:26:46.922Z,13.80
2022-12-18T09:29:50.399Z,13.80
2022-12-18T09:32:52.473Z,14.20
2022-12-18T09:35:54.716Z,14.40
2022-12-18T09:38:56.728Z,14.40
2022-12-18T09:41:59.632Z,14.40
2022-12-18T09:45:04.581Z,14.30
2022-12-18T09:48:11.789Z,14.30
2022-12-18T09:51:18.759Z,14.30
2022-12-18T09:54:32.422Z,14.30
2022-12-18T09:57:37.968Z,14.40
2022-12-18T10:00:40.142Z,14.40
2022-12-18T10:03:42.183Z,14.40
2022-12-18T10:06:55.119Z,14.40
2022-12-18T10:10:05.739Z,14.40
2022-12-18T10:13:29.669Z,14.40
2022-12-18T10:16:42.467Z,14.50
2022-12-18T10:20:33.171Z,14.60
2022-12-18T10:23:54.480Z,14.70
2022-12-18T10:27:10.684Z,14.70
2022-12-18T10:30:20.215Z,14.70
2022-12-18T10:33:25.742Z,14.80
2022-12-18T10:36:27.915Z,14.80
2022-12-18T10:39:29.982Z,14.80
2022-12-18T10:42:34.792Z,15.10
2022-12-18T10:45:36.864Z,15.90
2022-12-18T10:48:49.046Z,16.30
2022-12-18T10:51:52.534Z,16.40
2022-12-18T10:55:03.069Z,16.60
2022-12-18T10:58:28.386Z,16.40
2022-12-18T11:01:59.788Z,16.20
2022-12-18T11:05:02.970Z,15.90
2022-12-18T11:08:05.324Z,15.60
2022-12-18T11:11:22.065Z,15.60
2022-12-18T11:14:46.900Z,15.70
2022-12-18T11:17:52.706Z,15.90
2022-12-18T11:21:05.527Z,16.00
2022-12-18T11:24:22.636Z,15.90
2022-12-18T11:27:25.375Z,15.80
2022-12-18T11:30:33.796Z,15.70
2022-12-18T11:33:36.638Z,15.50
2022-12-18T11:36:51.567Z,15.20
2022-12-18T11:40:07.776Z,15.10
2022-12-18T11:43:26.674Z,15.00
2022-12-18T11:46:39.533Z,15.00
2022-12-18T11:49:42.698Z,15.00
2022-12-18T11:52:44.919Z,15.00
2022-12-18T11:56:04.798Z,15.00
2022-12-18T11:59:14.984Z,15.00
2022-12-18T12:02:50.449Z,15.00
2022-12-18T12:06:23.835Z,15.00
2022-12-18T12:09:39.783Z,15.10
2022-12-18T12:12:56.845Z,15.20
2022-12-18T12:16:42.813Z,15.20
2022-12-18T12:19:47.539Z,15.30
2022-12-18T12:23:23.551Z,15.30
2022-12-18T12:26:51.276Z,15.40
2022-12-18T12:29:53.325Z,15.30
2022-12-18T12:33:04.089Z,15.40
2022-12-18T12:36:08.999Z,15.40
2022-12-18T12:39:17.517Z,15.50
2022-12-18T12:43:05.822Z,15.60
2022-12-18T12:46:13.987Z,15.60
2022-12-18T12:49:20.821Z,15.60
2022-12-18T12:52:58.419Z,15.60
2022-12-18T12:56:00.761Z,15.60
2022-12-18T12:59:20.567Z,15.70
2022-12-18T13:02:25.752Z,15.70
2022-12-18T13:05:47.175Z,15.80
2022-12-18T13:08:58.919Z,15.90
2022-12-18T13:12:30.188Z,16.00
2022-12-18T13:16:08.097Z,16.10
2022-12-18T13:19:26.492Z,16.20
2022-12-18T13:22:46.041Z,16.30
2022-12-18T13:25:48.175Z,16.40
2022-12-18T13:28:55.001Z,16.50
2022-12-18T13:32:02.100Z,16.50
2022-12-18T13:35:22.682Z,16.50
2022-12-18T13:38:38.134Z,16.50
2022-12-18T13:41:40.634Z,16.50
2022-12-18T13:44:43.015Z,16.60
2022-12-18T13:47:45.122Z,16.70
2022-12-18T13:51:01.708Z,16.70
2022-12-18T13:54:30.981Z,16.70
2022-12-18T13:57:35.778Z,16.80
2022-12-18T14:00:43.791Z,16.80
2022-12-18T14:03:46.148Z,16.70
2022-12-18T14:06:53.899Z,16.70
2022-12-18T14:10:18.742Z,16.70
2022-12-18T14:13:37.823Z,16.70
2022-12-18T14:16:42.582Z,16.70
2022-12-18T14:19:48.730Z,16.80
2022-12-18T14:22:51.293Z,16.80
2022-12-18T14:25:53.316Z,16.90
2022-12-18T14:29:02.400Z,17.00
2022-12-18T14:32:17.817Z,16.90
2022-12-18T14:35:20.335Z,17.00
2022-12-18T14:38:30.415Z,17.00
2022-12-18T14:41:34.222Z,17.00
2022-12-18T14:44:50.782Z,17.00
2022-12-18T14:47:58.929Z,17.00
2022-12-18T14:51:01.071Z,17.10
2022-12-18T14:54:10.943Z,17.10
2022-12-18T14:57:25.887Z,17.00
2022-12-18T15:00:28.296Z,17.10
2022-12-18T15:03:32.606Z,17.10
2022-12-18T15:06:38.180Z,17.20
2022-12-18T15:09:45.636Z,17.20
2022-12-18T15:13:04.475Z,17.20
2022-12-18T15:16:14.042Z,17.20
2022-12-18T15:19:18.326Z,17.20
2022-12-18T15:22:27.844Z,17.20
2022-12-18T15:25:38.324Z,17.20
2022-12-18T15:28:44.655Z,17.20
2022-12-18T15:32:00.191Z,17.20
2022-12-18T15:35:14.244Z,17.20
2022-12-18T15:38:16.332Z,17.20
2022-12-18T15:41:24.469Z,17.20
2022-12-18T15:44:27.215Z,17.10
2022-12-18T15:47:29.434Z,17.10
2022-12-18T15:50:31.729Z,17.10
2022-12-18T15:53:34.992Z,17.10
2022-12-18T15:56:55.623Z,17.10
2022-12-18T15:59:59.466Z,17.10
2022-12-18T16:03:02.799Z,17.10
2022-12-18T16:06:05.478Z,17.00
2022-12-18T16:09:07.564Z,17.00
2022-12-18T16:12:25.347Z,17.00
2022-12-18T16:15:27.372Z,17.10
2022-12-18T16:18:29.397Z,17.00
2022-12-18T16:21:34.094Z,17.10
2022-12-18T16:24:37.359Z,17.00
2022-12-18T16:27:39.506Z,17.00
2022-12-18T16:30:41.596Z,17.00
2022-12-18T16:33:44.038Z,16.90
2022-12-18T16:36:47.797Z,16.90
2022-12-18T16:39:49.799Z,16.90
2022-12-18T16:42:51.950Z,16.90
2022-12-18T16:45:58.376Z,16.90
2022-12-18T16:49:01.115Z,16.90
2022-12-18T16:52:04.764Z,16.90
2022-12-18T16:55:07.098Z,16.90
2022-12-18T16:58:09.239Z,16.90
2022-12-18T17:01:12.577Z,16.90
2022-12-18T17:04:15.830Z,16.80
2022-12-18T17:07:17.925Z,16.80
2022-12-18T17:10:20.061Z,16.80
2022-12-18T17:13:25.719Z,16.80
2022-12-18T17:16:28.305Z,16.80
2022-12-18T17:19:31.014Z,16.80
2022-12-18T17:22:33.165Z,16.80
2022-12-18T17:25:42.511Z,16.80
2022-12-18T17:28:44.667Z,16.80
2022-12-18T17:31:49.272Z,16.80
2022-12-18T17:34:51.514Z,16.80
2022-12-18T17:37:53.561Z,16.80
2022-12-18T17:41:00.551Z,16.80
2022-12-18T17:44:06.669Z,16.80
2022-12-18T17:47:12.239Z,16.80
2022-12-18T17:50:14.518Z,16.80
2022-12-18T17:53:16.624Z,16.80
2022-12-18T17:56:20.691Z,16.70
2022-12-18T17:59:23.005Z,16.70
2022-12-18T18:02:25.231Z,16.70
2022-12-18T18:05:29.748Z,16.70
2022-12-18T18:08:32.147Z,16.80
2022-12-18T18:12:11.769Z,16.70
2022-12-18T18:15:14.335Z,16.80
2022-12-18T18:18:19.275Z,16.80
2022-12-18T18:21:24.013Z,16.80
2022-12-18T18:24:27.547Z,16.80
2022-12-18T18:27:36.848Z,16.80
2022-12-18T18:30:41.114Z,16.70
2022-12-18T18:33:43.950Z,16.70
2022-12-18T18:36:46.839Z,16.70
2022-12-18T18:39:48.853Z,16.80
2022-12-18T18:42:51.155Z,16.80
2022-12-18T18:46:00.905Z,16.80
2022-12-18T18:49:05.716Z,16.80
2022-12-18T18:52:07.739Z,16.70
2022-12-18T18:55:16.567Z,16.80
2022-12-18T18:58:27.151Z,16.70
2022-12-18T19:01:30.237Z,16.70
2022-12-18T19:04:34.131Z,16.80
2022-12-18T19:07:36.264Z,16.70
2022-12-18T19:10:42.926Z,16.70
2022-12-18T19:13:45.587Z,16.80
2022-12-18T19:16:49.994Z,16.80
2022-12-18T19:19:52.707Z,16.80
2022-12-18T19:22:56.584Z,16.70
2022-12-18T19:26:33.717Z,16.80
2022-12-18T19:29:28.551Z,16.80
2022-12-18T19:32:31.551Z,16.80
2022-12-18T19:35:33.849Z,16.80
2022-12-18T19:38:35.967Z,16.80
2022-12-18T19:41:38.308Z,16.80
2022-12-18T19:44:40.537Z,16.70
2022-12-18T19:47:44.341Z,16.70
2022-12-18T19:50:49.493Z,16.80
2022-12-18T19:53:58.176Z,16.80
2022-12-18T19:57:00.857Z,16.70
2022-12-18T20:00:03.078Z,16.70
2022-12-18T20:03:14.066Z,16.70
2022-12-18T20:06:37.044Z,16.70
2022-12-18T20:09:39.208Z,16.70
2022-12-18T20:12:41.665Z,16.70
2022-12-18T20:15:45.496Z,16.70
2022-12-18T20:18:47.827Z,16.70
2022-12-18T20:21:50.078Z,16.70
2022-12-18T20:24:52.075Z,16.70
2022-12-18T20:27:54.144Z,16.70
2022-12-18T20:31:00.865Z,16.70
2022-12-18T20:34:04.077Z,16.70
2022-12-18T20:37:08.410Z,16.60
2022-12-18T20:40:12.152Z,16.60
2022-12-18T20:43:17.476Z,16.60
2022-12-18T20:46:20.534Z,16.60
2022-12-18T20:49:24.450Z,16.60
2022-12-18T20:52:26.799Z,16.60
2022-12-18T20:55:29.063Z,16.60
2022-12-18T20:58:31.142Z,16.60
2022-12-18T21:01:33.395Z,16.60
2022-12-18T21:04:37.696Z,16.60
2022-12-18T21:07:39.760Z,16.60
2022-12-18T21:10:42.591Z,16.60
2022-12-18T21:13:45.010Z,16.60
2022-12-18T21:16:47.717Z,16.60
2022-12-18T21:19:49.921Z,16.50
2022-12-18T21:22:52.469Z,16.50
2022-12-18T21:26:25.236Z,16.50
2022-12-18T21:29:31.186Z,16.50
2022-12-18T21:32:33.559Z,16.50
2022-12-18T21:35:36.505Z,16.50
2022-12-18T21:38:38.531Z,16.50
2022-12-18T21:41:59.029Z,16.50
2022-12-18T21:45:01.306Z,16.50
2022-12-18T21:48:04.810Z,16.50
2022-12-18T21:51:07.138Z,16.50
2022-12-18T21:54:09.838Z,16.50
2022-12-18T21:57:13.572Z,16.50
2022-12-18T22:00:18.946Z,16.50
2022-12-18T22:03:21.827Z,16.40
2022-12-18T22:06:23.953Z,16.40
2022-12-18T22:09:26.401Z,16.40
2022-12-18T22:12:42.920Z,16.40
2022-12-18T22:15:46.805Z,16.40
2022-12-18T22:18:48.969Z,16.30
2022-12-18T22:21:51.745Z,16.30
2022-12-18T22:24:53.835Z,16.30
2022-12-18T22:28:14.423Z,16.20
2022-12-18T22:31:17.797Z,16.20
2022-12-18T22:34:22.977Z,16.10
2022-12-18T22:37:25.453Z,16.10
2022-12-18T22:40:28.580Z,16.10
2022-12-18T22:43:30.915Z,16.00
2022-12-18T22:46:36.948Z,16.00
2022-12-18T22:49:39.035Z,16.00
2022-12-18T22:52:41.726Z,16.00
2022-12-18T22:55:44.339Z,16.00
2022-12-18T22:58:50.717Z,15.90
2022-12-18T23:01:55.711Z,16.00
2022-12-18T23:05:01.257Z,16.00
2022-12-18T23:08:04.319Z,15.90
2022-12-18T23:11:06.951Z,15.90
2022-12-18T23:14:09.017Z,15.90
2022-12-18T23:17:11.241Z,15.90
2022-12-18T23:20:13.970Z,15.90
2022-12-18T23:23:16.141Z,15.90
2022-12-18T23:26:23.695Z,15.90
2022-12-18T23:29:25.797Z,15.80
2022-12-18T23:32:28.885Z,15.80
2022-12-18T23:35:31.270Z,15.80
2022-12-18T23:38:34.289Z,15.80
2022-12-18T23:41:36.331Z,15.80
2022-12-18T23:44:38.399Z,15.80
2022-12-18T23:47:40.427Z,15.70
2022-12-18T23:50:42.677Z,15.80
2022-12-18T23:53:45.390Z,15.70
2022-12-18T23:56:47.993Z,15.70
2022-12-18T23:59:49.974Z,15.80
